Time;durP1;ratioP1;P1;durP2;ratioP2;P2;SDS_P1;SDS_P2;PMS_P1;PMS_P2;Temp;Humidity;BMP_temperature;BMP_pressure;BME280_temperature;BME280_humidity;BME280_pressure;Samples;Min_cycle;Max_cycle;Signal;HPM_P1;HPM_P2
2022/08/31 00:04:28;;;;;;;;;8.00;7.00;;;;;22.85;73.62;101575.47;5057800;28;45725;-73
2022/08/31 00:06:53;;;;;;;;;6.33;6.33;;;;;22.81;73.98;101574.69;5057287;28;45479;-75
2022/08/31 00:09:19;;;;;;;;;5.33;5.33;;;;;22.74;74.29;101559.63;5055587;28;50601;-73
2022/08/31 00:11:44;;;;;;;;;7.67;6.00;;;;;22.74;74.37;101556.91;5049925;28;45500;-74
2022/08/31 00:14:10;;;;;;;;;6.67;6.67;;;;;22.71;74.21;101557.03;5051856;28;45949;-73
2022/08/31 00:16:38;;;;;;;;;8.00;5.00;;;;;22.66;74.29;101558.97;5054021;28;49246;-73
2022/08/31 00:19:04;;;;;;;;;5.67;5.67;;;;;22.67;74.55;101563.41;5038858;28;45427;-73
2022/08/31 00:21:30;;;;;;;;;6.33;6.33;;;;;22.64;74.39;101556.31;5057356;28;45373;-73
2022/08/31 00:23:56;;;;;;;;;7.00;6.00;;;;;22.60;74.16;101548.38;5057056;28;45601;-72
2022/08/31 00:26:22;;;;;;;;;5.00;4.67;;;;;22.60;74.16;101554.63;5054424;28;45337;-75
2022/08/31 00:28:48;;;;;;;;;6.67;5.67;;;;;22.55;74.10;101550.31;5055214;28;45371;-76
2022/08/31 00:31:14;;;;;;;;;5.67;5.33;;;;;22.57;74.07;101552.00;5057007;28;45375;-73
2022/08/31 00:33:39;;;;;;;;;5.33;5.33;;;;;22.53;73.95;101541.38;5056778;28;47410;-73
2022/08/31 00:36:08;;;;;;;;;5.33;4.33;;;;;22.55;74.08;101550.31;5056912;28;45461;-74
2022/08/31 00:38:34;;;;;;;;;4.33;4.33;;;;;22.47;74.01;101537.91;5055065;28;45448;-74
2022/08/31 00:41:00;;;;;;;;;6.33;5.67;;;;;22.49;73.90;101549.53;5051120;28;45261;-73
2022/08/31 00:43:44;;;;;;;;;6.00;4.33;;;;;22.47;74.13;101550.47;5055773;28;46277;-73
2022/08/31 00:46:12;;;;;;;;;6.00;6.00;;;;;22.39;74.00;101539.06;5047590;28;45503;-72
2022/08/31 00:48:41;;;;;;;;;5.00;5.00;;;;;22.35;74.19;101543.63;5057218;28;45334;-75
2022/08/31 00:51:07;;;;;;;;;5.00;5.00;;;;;22.32;74.11;101540.13;5057250;28;45480;-73
2022/08/31 00:53:33;;;;;;;;;4.67;4.67;;;;;22.32;74.15;101540.13;5056433;28;59283;-73
2022/08/31 00:55:58;;;;;;;;;7.00;5.00;;;;;22.34;74.27;101543.69;5054092;28;45406;-73
2022/08/31 00:58:23;;;;;;;;;8.00;5.00;;;;;22.28;74.38;101539.34;5036941;28;45547;-73
2022/08/31 01:00:50;;;;;;;;;3.00;3.00;;;;;22.27;74.25;101539.41;5054597;28;45481;-75
2022/08/31 01:03:17;;;;;;;;;5.33;5.33;;;;;22.23;74.17;101547.53;5037061;28;46007;-75
2022/08/31 01:05:42;;;;;;;;;6.00;5.00;;;;;22.18;74.27;101544.06;5056445;28;45468;-73
2022/08/31 01:08:07;;;;;;;;;4.00;4.00;;;;;22.20;74.32;101552.09;5056109;28;47074;-73
2022/08/31 01:10:39;;;;;;;;;5.33;4.00;;;;;22.20;74.09;101554.78;5051766;28;45426;-73
2022/08/31 01:13:05;;;;;;;;;5.67;5.00;;;;;22.19;74.37;101558.41;5056041;28;47582;-73
2022/08/31 01:15:31;;;;;;;;;4.00;4.00;;;;;22.18;74.49;101556.66;5055927;28;45555;-72
2022/08/31 01:18:01;;;;;;;;;6.67;5.00;;;;;22.15;74.58;101556.72;5047546;28;45555;-73
2022/08/31 01:20:45;;;;;;;;;7.00;5.00;;;;;22.14;74.21;101560.31;5055477;28;45602;-72
2022/08/31 01:23:32;;;;;;;;;4.67;4.67;;;;;22.13;74.23;101563.94;5037956;28;48449;-72
2022/08/31 01:25:58;;;;;;;;;7.33;3.00;;;;;22.05;74.62;101556.06;5049327;28;45405;-73
2022/08/31 01:28:23;;;;;;;;;4.33;4.33;;;;;22.03;75.10;101557.00;5054782;28;45329;-73
2022/08/31 01:31:01;;;;;;;;;6.33;6.33;;;;;22.04;75.50;101567.69;5054742;28;45499;-72
2022/08/31 01:33:27;;;;;;;;;7.00;7.00;;;;;22.03;75.35;101570.44;5056031;28;45754;-72
2022/08/31 01:35:53;;;;;;;;;6.00;6.00;;;;;22.00;76.08;101567.81;5058347;28;45550;-73
2022/08/31 01:38:19;;;;;;;;;4.00;4.00;;;;;21.97;76.03;101569.66;5039796;28;45959;-75
2022/08/31 01:40:49;;;;;;;;;6.67;5.00;;;;;21.94;76.14;101564.38;5051095;28;45686;-77
2022/08/31 01:43:15;;;;;;;;;6.00;5.00;;;;;21.88;76.44;101560.94;5037068;28;46760;-73
2022/08/31 01:45:40;;;;;;;;;5.00;5.00;;;;;21.86;76.21;101557.41;5055732;28;45555;-73
2022/08/31 01:48:05;;;;;;;;;7.33;5.67;;;;;21.85;76.40;101561.91;5055665;28;54815;-76
2022/08/31 01:50:31;;;;;;;;;6.00;4.33;;;;;21.77;76.79;101561.19;5036594;28;45494;-72
2022/08/31 01:52:56;;;;;;;;;4.33;4.33;;;;;21.78;76.99;101567.44;5054746;28;46239;-73
2022/08/31 01:55:22;;;;;;;;;6.00;4.00;;;;;21.74;76.96;101566.66;5054733;28;45395;-72
2022/08/31 01:57:48;;;;;;;;;4.00;4.00;;;;;21.70;77.34;101571.22;5056025;28;45390;-73
2022/08/31 02:00:13;;;;;;;;;6.00;4.00;;;;;21.66;77.55;101561.44;5054783;28;45443;-75
2022/08/31 02:02:39;;;;;;;;;7.33;3.00;;;;;21.64;77.42;101570.47;5055981;28;46421;-73
2022/08/31 02:05:05;;;;;;;;;3.33;3.33;;;;;21.62;77.60;101569.59;5056043;28;45337;-76
2022/08/31 02:07:30;;;;;;;;;5.00;5.00;;;;;21.59;77.63;101564.31;5053834;28;45445;-73
2022/08/31 02:09:56;;;;;;;;;5.00;5.00;;;;;21.57;78.11;101572.44;5054354;28;45490;-72
2022/08/31 02:12:21;;;;;;;;;5.00;5.00;;;;;21.56;78.87;101576.00;5052386;28;48342;-76
2022/08/31 02:14:46;;;;;;;;;5.00;5.00;;;;;21.51;78.51;101567.16;5055222;28;45572;-73
2022/08/31 02:17:12;;;;;;;;;5.33;5.00;;;;;21.45;79.03;101556.56;5055182;28;45820;-73
2022/08/31 02:19:37;;;;;;;;;5.00;4.00;;;;;21.50;79.36;101562.72;5055699;28;45404;-72
2022/08/31 02:22:03;;;;;;;;;5.00;5.00;;;;;21.48;79.56;101555.63;5053179;28;50543;-76
2022/08/31 02:24:28;;;;;;;;;6.00;4.00;;;;;21.45;80.15;101557.44;5034912;28;45430;-73
2022/08/31 02:26:53;;;;;;;;;5.00;5.00;;;;;21.42;79.71;101562.03;5054162;28;45979;-72
2022/08/31 02:29:19;;;;;;;;;6.00;6.00;;;;;21.39;80.44;101573.72;5036913;28;45173;-73
2022/08/31 02:31:45;;;;;;;;;4.67;4.00;;;;;21.38;80.15;101574.63;5037418;28;48109;-75
2022/08/31 02:34:10;;;;;;;;;4.67;4.67;;;;;21.33;81.11;101570.28;5047066;28;45188;-73
2022/08/31 02:36:35;;;;;;;;;6.33;6.00;;;;;21.32;81.53;101585.50;5054681;28;56393;-73
2022/08/31 02:39:01;;;;;;;;;7.00;6.00;;;;;21.29;82.67;101585.53;5055152;28;45489;-73
2022/08/31 02:41:26;;;;;;;;;8.00;5.33;;;;;21.23;82.57;101588.34;5051061;28;46318;-73
2022/08/31 02:43:52;;;;;;;;;4.00;4.00;;;;;21.23;82.76;101584.78;5053651;28;45421;-75
2022/08/31 02:46:17;;;;;;;;;6.33;4.00;;;;;21.18;82.59;101583.06;5055611;28;45324;-72
2022/08/31 02:48:43;;;;;;;;;7.00;6.67;;;;;21.13;82.60;101581.41;5055332;28;45307;-73
2022/08/31 02:51:09;;;;;;;;;6.33;5.00;;;;;21.13;82.97;101582.28;5052929;28;46111;-72
2022/08/31 02:53:35;;;;;;;;;6.00;6.00;;;;;21.07;83.27;101584.22;5037495;28;45472;-73
2022/08/31 02:56:01;;;;;;;;;7.00;5.67;;;;;21.08;83.47;101588.66;5054917;28;45512;-73
2022/08/31 02:58:27;;;;;;;;;6.33;6.33;;;;;21.04;85.75;101597.69;5055643;28;45555;-73
2022/08/31 03:00:53;;;;;;;;;7.33;5.33;;;;;21.03;84.97;101587.88;5053996;28;50526;-73
2022/08/31 03:03:20;;;;;;;;;6.67;6.67;;;;;20.97;85.16;101588.88;5052259;28;45527;-72
2022/08/31 03:05:46;;;;;;;;;7.67;5.67;;;;;20.98;85.07;101587.97;5035327;28;45469;-72
2022/08/31 03:08:11;;;;;;;;;6.00;6.00;;;;;20.91;85.33;101583.63;5053476;28;45623;-72
2022/08/31 03:10:37;;;;;;;;;4.67;4.00;;;;;20.91;85.81;101591.69;5050825;28;47449;-73
2022/08/31 03:13:02;;;;;;;;;7.33;6.00;;;;;20.89;85.49;101594.41;5050039;28;45307;-72
2022/08/31 03:15:28;;;;;;;;;5.00;5.00;;;;;20.85;85.46;101590.03;5054428;28;45432;-72
2022/08/31 03:17:54;;;;;;;;;7.33;5.67;;;;;20.79;86.17;101590.13;5046966;28;45400;-72
2022/08/31 03:20:22;;;;;;;;;9.00;5.33;;;;;20.73;85.66;101582.22;5055301;28;46522;-72
2022/08/31 03:22:49;;;;;;;;;6.00;5.00;;;;;20.77;86.23;101594.63;5051352;28;45417;-73
2022/08/31 03:25:16;;;;;;;;;7.00;7.00;;;;;20.70;86.38;101587.63;5044278;28;45598;-72
2022/08/31 03:27:42;;;;;;;;;6.33;5.00;;;;;20.74;86.52;101604.56;5052226;28;45603;-74
2022/08/31 03:30:10;;;;;;;;;7.33;6.00;;;;;20.70;86.79;101601.03;5052783;28;47395;-73
2022/08/31 03:32:36;;;;;;;;;5.00;5.00;;;;;20.66;86.91;101594.84;5054032;28;45447;-74
2022/08/31 03:35:02;;;;;;;;;7.00;7.00;;;;;20.61;87.49;101593.16;5052423;28;45485;-74
2022/08/31 03:37:27;;;;;;;;;5.67;5.67;;;;;20.55;87.24;101586.09;5054028;28;45375;-73
2022/08/31 03:39:53;;;;;;;;;5.00;5.00;;;;;20.55;87.24;101599.50;5052415;28;47708;-73
2022/08/31 03:42:18;;;;;;;;;5.67;5.67;;;;;20.54;87.29;101605.81;5049825;28;45553;-72
2022/08/31 03:44:45;;;;;;;;;8.67;5.33;;;;;20.52;87.42;101609.44;5057939;28;45325;-72
2022/08/31 03:47:11;;;;;;;;;4.33;4.33;;;;;20.49;87.57;101607.69;5057439;28;45515;-74
2022/08/31 03:49:36;;;;;;;;;7.00;5.67;;;;;20.45;88.46;101600.56;5057217;28;45833;-73
2022/08/31 03:52:02;;;;;;;;;6.67;4.00;;;;;20.41;88.25;101605.13;5055135;28;56229;-72
2022/08/31 03:54:28;;;;;;;;;6.00;4.67;;;;;20.31;88.86;101595.44;5056859;28;45531;-73
2022/08/31 03:56:53;;;;;;;;;6.00;6.00;;;;;20.31;88.58;101607.97;5057326;28;45393;-76
2022/08/31 03:59:19;;;;;;;;;9.00;6.67;;;;;20.29;89.30;101609.78;5057779;28;45999;-73
2022/08/31 04:01:44;;;;;;;;;6.00;6.00;;;;;20.25;89.81;101605.41;5057877;28;45649;-74
2022/08/31 04:04:11;;;;;;;;;6.33;6.33;;;;;20.23;89.72;101608.09;5055317;28;51619;-73
2022/08/31 04:06:39;;;;;;;;;11.00;7.00;;;;;20.17;90.30;101600.16;5033749;28;45792;-75
2022/08/31 04:09:04;;;;;;;;;5.00;5.00;;;;;20.18;90.12;101601.91;5054896;28;46904;-74
2022/08/31 04:11:30;;;;;;;;;9.00;7.33;;;;;20.17;90.42;101612.69;5047498;28;45640;-73
2022/08/31 04:13:55;;;;;;;;;9.33;7.67;;;;;20.08;90.35;101603.88;5056525;28;45381;-75
2022/08/31 04:16:22;;;;;;;;;10.33;6.67;;;;;20.09;90.82;101608.31;5056203;28;45542;-75
2022/08/31 04:18:47;;;;;;;;;6.00;6.00;;;;;20.05;90.90;101617.31;5057219;28;46840;-73
2022/08/31 04:21:21;;;;;;;;;8.00;7.00;;;;;20.03;91.60;101612.91;5056896;28;45487;-72
2022/08/31 04:23:49;;;;;;;;;10.67;7.00;;;;;20.00;91.33;101616.50;5057390;28;45431;-72
2022/08/31 04:26:16;;;;;;;;;6.33;6.33;;;;;19.99;92.17;101616.53;5057088;28;45497;-72
2022/08/31 04:28:41;;;;;;;;;9.33;7.00;;;;;19.94;91.97;101618.41;5056977;28;47638;-75
2022/08/31 04:31:07;;;;;;;;;8.67;8.67;;;;;19.96;92.42;101624.63;5055123;28;51798;-73
2022/08/31 04:33:37;;;;;;;;;7.00;7.00;;;;;19.93;92.29;101619.31;5056992;28;45484;-72
2022/08/31 04:36:11;;;;;;;;;6.00;6.00;;;;;19.86;92.33;101622.06;5057422;28;45381;-73
2022/08/31 04:38:37;;;;;;;;;10.33;6.00;;;;;19.82;93.24;101625.72;5038937;28;47423;-72
2022/08/31 04:41:11;;;;;;;;;11.00;6.67;;;;;19.81;93.13;101621.25;5038526;28;45335;-73
2022/08/31 04:43:38;;;;;;;;;7.00;6.00;;;;;19.84;93.06;101629.25;5053542;28;45228;-75
2022/08/31 04:46:05;;;;;;;;;5.00;5.00;;;;;19.84;93.69;101625.69;5057112;28;45379;-72
2022/08/31 04:48:30;;;;;;;;;7.00;7.00;;;;;19.82;94.30;101625.72;5035878;28;45631;-73
2022/08/31 04:51:04;;;;;;;;;10.67;9.33;;;;;19.81;94.45;101618.56;5053389;28;57283;-73
2022/08/31 04:53:29;;;;;;;;;9.33;8.00;;;;;19.77;94.26;101618.66;5056533;28;45476;-72
2022/08/31 04:55:54;;;;;;;;;6.67;6.67;;;;;19.82;94.71;101623.03;5055847;28;52277;-76
2022/08/31 04:58:22;;;;;;;;;6.00;6.00;;;;;19.80;94.35;101626.63;5057200;28;45592;-73
2022/08/31 05:00:48;;;;;;;;;10.00;8.67;;;;;19.77;94.25;101613.31;5056474;28;45462;-73
2022/08/31 05:03:14;;;;;;;;;7.67;7.33;;;;;19.76;94.41;101611.50;5058176;28;45441;-73
2022/08/31 05:05:40;;;;;;;;;8.67;7.00;;;;;19.78;94.72;101620.44;5056042;28;45468;-72
2022/08/31 05:08:06;;;;;;;;;6.67;6.67;;;;;19.74;95.00;101614.22;5036795;28;46603;-73
2022/08/31 05:10:31;;;;;;;;;9.67;7.00;;;;;19.71;94.63;101608.91;5054623;28;45461;-72
2022/08/31 05:12:56;;;;;;;;;7.00;7.00;;;;;19.69;95.62;101616.06;5035165;28;45630;-73
2022/08/31 05:15:22;;;;;;;;;8.67;6.33;;;;;19.68;95.82;101616.09;5057076;28;45454;-73
2022/08/31 05:17:47;;;;;;;;;8.00;7.67;;;;;19.66;95.92;101616.13;5052622;28;45692;-73
2022/08/31 05:20:13;;;;;;;;;10.00;7.33;;;;;19.60;96.03;101608.16;5047918;28;45399;-72
2022/08/31 05:22:38;;;;;;;;;7.00;7.00;;;;;19.63;95.71;101614.38;5053259;28;53683;-73
2022/08/31 05:25:05;;;;;;;;;10.00;9.00;;;;;19.63;96.50;101621.53;5050338;28;45543;-74
2022/08/31 05:27:32;;;;;;;;;9.33;8.67;;;;;19.61;96.69;101628.69;5055098;28;46994;-74
2022/08/31 05:29:57;;;;;;;;;10.67;7.33;;;;;19.59;98.18;101626.03;5055900;28;45738;-72
2022/08/31 05:32:22;;;;;;;;;11.00;9.67;;;;;19.56;97.88;101620.69;5055498;28;45498;-73
2022/08/31 05:34:48;;;;;;;;;9.67;8.00;;;;;19.57;97.92;101616.22;5054348;28;45389;-74
2022/08/31 05:37:14;;;;;;;;;11.00;7.67;;;;;19.62;97.66;101626.00;5052757;28;46597;-73
2022/08/31 05:39:40;;;;;;;;;12.33;7.33;;;;;19.62;97.41;101625.13;5047712;28;57831;-72
2022/08/31 05:42:08;;;;;;;;;7.00;7.00;;;;;19.65;97.70;101629.53;5050631;28;45539;-72
2022/08/31 05:44:35;;;;;;;;;9.00;5.67;;;;;19.67;97.86;101630.41;5054921;28;45333;-74
2022/08/31 05:47:01;;;;;;;;;10.33;7.00;;;;;19.64;97.37;101620.59;5055292;28;46489;-74
2022/08/31 05:49:27;;;;;;;;;10.33;7.00;;;;;19.65;97.94;101621.50;5054376;28;45572;-72
2022/08/31 05:51:52;;;;;;;;;10.00;7.00;;;;;19.63;98.56;101618.84;5034616;28;45555;-72
2022/08/31 05:54:18;;;;;;;;;7.33;6.67;;;;;19.63;98.90;101617.03;5048621;28;45569;-74
2022/08/31 05:56:43;;;;;;;;;10.33;9.33;;;;;19.54;99.07;101614.44;5052254;28;47359;-74
2022/08/31 05:59:09;;;;;;;;;9.67;7.33;;;;;19.60;98.85;101621.53;5052703;28;45888;-73
2022/08/31 06:01:37;;;;;;;;;8.00;7.00;;;;;19.68;98.84;101633.06;5055511;28;45294;-74
2022/08/31 06:04:03;;;;;;;;;6.67;6.67;;;;;19.70;98.46;101636.59;5055097;28;45491;-73
2022/08/31 06:06:29;;;;;;;;;8.00;7.00;;;;;19.68;98.91;101627.69;5056220;28;46742;-74
2022/08/31 06:08:56;;;;;;;;;8.67;8.67;;;;;19.70;98.83;101620.50;5035193;28;45535;-73
2022/08/31 06:11:23;;;;;;;;;7.67;7.33;;;;;19.76;98.24;101631.19;5052222;28;45611;-71
2022/08/31 06:13:51;;;;;;;;;7.67;6.67;;;;;19.77;98.73;101627.59;5048446;28;45432;-72
2022/08/31 06:16:18;;;;;;;;;6.33;6.33;;;;;19.71;98.43;101614.28;5053362;28;46305;-73
2022/08/31 06:18:50;;;;;;;;;8.33;8.00;;;;;19.81;98.86;101631.09;5055067;28;45587;-73
2022/08/31 06:21:26;;;;;;;;;6.00;6.00;;;;;19.80;98.19;101632.88;5053089;28;45519;-72
2022/08/31 06:23:53;;;;;;;;;5.67;5.67;;;;;19.81;97.76;101623.91;5053190;28;45528;-73
2022/08/31 06:26:20;;;;;;;;;10.00;8.00;;;;;19.85;98.36;101630.13;5052419;28;46207;-74
2022/08/31 06:28:48;;;;;;;;;6.67;6.67;;;;;19.92;97.88;101639.88;5052150;28;45420;-73
2022/08/31 06:31:28;;;;;;;;;9.33;8.00;;;;;19.94;97.56;101634.50;5052726;28;45467;-72
2022/08/31 06:33:54;;;;;;;;;7.00;7.00;;;;;19.95;98.11;101631.78;5051149;28;45354;-73
2022/08/31 06:36:22;;;;;;;;;9.00;7.33;;;;;19.99;97.91;101638.00;5050431;28;46669;-73
2022/08/31 06:38:47;;;;;;;;;7.00;7.00;;;;;19.97;97.69;101646.03;5052558;28;45664;-73
2022/08/31 06:41:14;;;;;;;;;5.33;5.33;;;;;19.97;98.19;101638.00;5053203;28;45712;-73
2022/08/31 06:43:40;;;;;;;;;9.67;7.33;;;;;19.97;98.63;101643.34;5034572;28;45698;-73
2022/08/31 06:46:06;;;;;;;;;8.00;8.00;;;;;19.92;98.66;101631.84;5051457;28;46657;-74
2022/08/31 06:48:32;;;;;;;;;8.00;7.00;;;;;19.93;98.34;101632.72;5051576;28;45445;-74
2022/08/31 06:50:58;;;;;;;;;10.67;7.00;;;;;19.98;98.68;101639.78;5054081;28;45534;-74
2022/08/31 06:53:23;;;;;;;;;9.33;9.33;;;;;19.95;98.59;101628.22;5052441;28;45421;-71
2022/08/31 06:55:49;;;;;;;;;10.67;7.33;;;;;20.02;98.92;101649.53;5051380;28;45760;-72
2022/08/31 06:58:14;;;;;;;;;7.67;6.67;;;;;20.02;98.41;101645.97;5051249;28;65594;-75
2022/08/31 07:00:39;;;;;;;;;9.00;9.00;;;;;20.01;98.53;101649.56;5052690;28;45562;-74
2022/08/31 07:03:21;;;;;;;;;8.00;8.00;;;;;20.06;98.30;101647.69;5051479;28;46528;-74
2022/08/31 07:05:47;;;;;;;;;9.67;9.67;;;;;20.09;98.95;101648.56;5051085;28;45694;-73
2022/08/31 07:08:13;;;;;;;;;14.67;10.00;;;;;20.07;98.30;101649.47;5176982;22;46214;-76
2022/08/31 07:10:38;;;;;;;;;8.00;7.00;;;;;20.13;98.34;101652.97;5052509;28;45284;-72
2022/08/31 07:13:04;;;;;;;;;9.00;7.00;;;;;20.13;98.59;101635.97;5037174;28;53599;-72
2022/08/31 07:15:29;;;;;;;;;8.00;8.00;;;;;20.17;98.34;101632.31;5053913;28;45578;-74
2022/08/31 07:17:54;;;;;;;;;13.00;7.33;;;;;20.26;98.42;101647.41;5053596;28;67281;-73
2022/08/31 07:20:20;;;;;;;;;13.67;9.67;;;;;20.28;97.77;101637.50;5047438;28;45448;-72
2022/08/31 07:22:45;;;;;;;;;12.67;9.67;;;;;20.33;97.19;101639.22;5055687;28;45595;-72
2022/08/31 07:25:11;;;;;;;;;10.00;10.00;;;;;20.34;97.16;101632.94;5051822;28;68492;-72
2022/08/31 07:27:36;;;;;;;;;11.33;9.00;;;;;20.44;96.96;101639.03;5057123;28;45301;-73
2022/08/31 07:30:02;;;;;;;;;11.00;8.67;;;;;20.50;96.56;101638.06;5056891;28;55626;-73
2022/08/31 07:32:27;;;;;;;;;14.00;8.67;;;;;20.54;96.17;101642.47;5057018;28;45340;-72
2022/08/31 07:34:53;;;;;;;;;8.67;8.33;;;;;20.53;96.06;101638.03;5053982;28;45598;-73
2022/08/31 07:42:46;;;;;;;;;10.67;9.00;;;;;20.66;95.79;101631.53;5049781;28;45611;-74
2022/08/31 07:45:23;;;;;;;;;12.00;12.00;;;;;20.63;95.81;101627.13;5054760;28;46437;-73
2022/08/31 07:47:50;;;;;;;;;13.33;10.00;;;;;20.72;95.16;101652.00;5038150;28;45340;-73
2022/08/31 07:50:16;;;;;;;;;14.00;9.33;;;;;20.75;95.17;101644.78;5056500;28;45415;-72
2022/08/31 07:52:52;;;;;;;;;11.67;11.00;;;;;20.80;95.27;101645.59;5054491;28;45538;-73
2022/08/31 07:55:20;;;;;;;;;2.00;2.00;;;;;20.85;95.16;101646.38;5053933;28;46406;-73
2022/08/31 07:57:46;;;;;;;;;8.33;8.33;;;;;20.91;94.65;101648.06;5037794;28;45548;-73
2022/08/31 08:00:17;;;;;;;;;10.00;9.00;;;;;20.90;94.78;101632.88;5029521;28;45333;-73
2022/08/31 08:02:45;;;;;;;;;10.33;9.33;;;;;20.95;94.86;101638.19;5054386;28;45535;-73
2022/08/31 08:05:19;;;;;;;;;6.67;5.67;;;;;20.96;94.37;101638.13;5054433;28;47590;-73
2022/08/31 08:07:47;;;;;;;;;9.67;9.00;;;;;20.98;94.36;101638.97;5051947;28;46891;-73
2022/08/31 08:10:14;;;;;;;;;7.67;7.67;;;;;21.01;94.64;101641.63;5052316;28;45624;-73
2022/08/31 08:12:45;;;;;;;;;14.00;9.00;;;;;21.00;94.06;101630.91;5045572;28;45482;-73
2022/08/31 08:15:11;;;;;;;;;11.33;10.00;;;;;21.09;94.74;101639.69;5038096;28;47593;-74
2022/08/31 08:17:36;;;;;;;;;13.33;11.00;;;;;21.01;94.61;101609.41;5055701;28;45525;-73
2022/08/31 08:20:03;;;;;;;;;10.67;10.67;;;;;21.21;94.33;101627.81;5054718;28;45464;-72
2022/08/31 08:22:28;;;;;;;;;10.00;10.00;;;;;21.25;93.93;101625.91;5055388;28;45685;-72
2022/08/31 08:24:54;;;;;;;;;9.33;9.33;;;;;21.25;94.24;101616.06;5056013;28;46305;-72
2022/08/31 08:27:19;;;;;;;;;11.33;9.33;;;;;21.30;93.51;101613.31;5050651;28;45318;-72
2022/08/31 08:29:44;;;;;;;;;11.33;10.00;;;;;21.38;93.71;101617.63;5037195;28;59883;-73
2022/08/31 08:32:10;;;;;;;;;11.00;11.00;;;;;21.43;93.28;101615.72;5053301;28;45519;-73
2022/08/31 08:34:42;;;;;;;;;11.33;10.00;;;;;21.48;92.72;101607.56;5035690;28;45977;-74
2022/08/31 08:37:08;;;;;;;;;11.67;9.67;;;;;21.52;92.77;101608.34;5054922;28;45449;-73
2022/08/31 08:39:34;;;;;;;;;12.67;11.00;;;;;21.53;92.96;101605.66;5026123;28;45460;-73
2022/08/31 08:42:01;;;;;;;;;13.33;11.33;;;;;21.61;92.42;101618.91;5053205;28;46781;-73
2022/08/31 08:44:27;;;;;;;;;15.33;13.33;;;;;21.64;92.18;101619.75;5019758;28;61061;-73
2022/08/31 08:46:58;;;;;;;;;10.67;10.67;;;;;21.63;92.46;101601.84;5054046;28;45388;-73
2022/08/31 08:49:27;;;;;;;;;9.00;9.00;;;;;21.74;92.11;101606.09;5054489;28;45480;-73
2022/08/31 08:51:56;;;;;;;;;10.33;7.67;;;;;21.78;92.10;101605.09;5045522;28;45509;-74
2022/08/31 08:54:41;;;;;;;;;9.00;9.00;;;;;21.83;92.95;101608.56;5054589;28;46574;-73
2022/08/31 08:57:13;;;;;;;;;14.67;12.33;;;;;21.90;92.21;101604.81;5052886;28;45688;-73
2022/08/31 08:59:44;;;;;;;;;10.67;10.00;;;;;21.93;91.42;101602.94;5047688;28;45407;-73
2022/08/31 09:02:38;;;;;;;;;12.00;10.00;;;;;22.01;91.21;101602.75;5053529;28;45591;-72
2022/08/31 09:05:07;;;;;;;;;12.00;10.00;;;;;22.06;90.82;101603.53;5036962;28;45936;-74
2022/08/31 09:08:09;;;;;;;;;12.00;12.00;;;;;22.06;90.83;101599.97;5053898;28;45367;-72
2022/08/31 09:10:44;;;;;;;;;12.67;11.67;;;;;22.14;90.60;101601.56;5050078;28;45468;-73
2022/08/31 09:13:31;;;;;;;;;8.33;8.33;;;;;22.19;90.22;101596.06;5053600;28;45507;-73
2022/08/31 09:15:56;;;;;;;;;9.00;9.00;;;;;22.25;90.55;101595.91;5051375;28;47443;-73
2022/08/31 09:18:40;;;;;;;;;11.00;10.00;;;;;22.33;90.04;101601.13;5052130;28;45521;-73
2022/08/31 09:21:20;;;;;;;;;8.00;8.00;;;;;22.40;89.82;101594.63;5052195;28;45297;-74
2022/08/31 09:24:07;;;;;;;;;8.33;8.33;;;;;22.46;88.89;101595.34;5052589;28;45586;-73
2022/08/31 09:26:45;;;;;;;;;11.00;11.00;;;;;22.48;89.04;101576.50;5054742;28;46503;-73
2022/08/31 09:29:23;;;;;;;;;11.00;11.00;;;;;22.58;88.54;101586.06;5035367;28;47715;-72
2022/08/31 09:32:08;;;;;;;;;14.67;12.00;;;;;22.64;88.42;101583.25;5049118;28;45365;-73
2022/08/31 09:34:39;;;;;;;;;14.00;10.00;;;;;22.70;87.65;101587.56;5053588;28;45407;-73
2022/08/31 09:37:10;;;;;;;;;12.00;9.00;;;;;22.73;87.45;101579.38;5053057;28;47508;-73
2022/08/31 09:39:36;;;;;;;;;9.67;9.67;;;;;22.83;86.78;101582.72;5050730;28;45531;-72
2022/08/31 09:42:13;;;;;;;;;11.33;10.00;;;;;22.88;86.92;101576.31;5036441;28;45459;-73
2022/08/31 09:44:40;;;;;;;;;8.33;7.67;;;;;22.96;86.78;101579.69;5054916;28;45495;-73
2022/08/31 09:47:50;;;;;;;;;11.33;10.33;;;;;23.00;86.89;101573.25;5036413;28;47490;-72
2022/08/31 09:50:34;;;;;;;;;8.33;8.33;;;;;23.13;86.51;101581.88;4986088;28;45927;-73
2022/08/31 09:56:18;;;;;;;;;12.67;9.00;;;;;23.26;84.95;101560.84;5051725;28;45430;-73
2022/08/31 09:58:51;;;;;;;;;11.67;9.00;;;;;23.37;84.70;101565.91;5054752;28;46680;-74
2022/08/31 10:01:27;;;;;;;;;10.00;9.00;;;;;23.43;84.68;101565.72;5053500;28;45507;-73
2022/08/31 10:04:07;;;;;;;;;8.00;8.00;;;;;23.50;84.60;101565.50;5052781;28;45590;-73
2022/08/31 10:06:54;;;;;;;;;11.67;9.00;;;;;23.57;83.91;101565.31;5051905;28;45528;-73
2022/08/31 10:09:21;;;;;;;;;10.00;8.67;;;;;23.62;83.56;101556.13;5049009;28;45492;-73
2022/08/31 10:11:49;;;;;;;;;9.67;9.67;;;;;23.62;83.32;101541.78;5054118;28;45502;-73
2022/08/31 10:14:29;;;;;;;;;9.00;7.67;;;;;23.70;82.86;101531.63;5036048;28;45536;-73
2022/08/31 10:17:01;;;;;;;;;44.00;36.25;;;;;23.79;83.23;101539.44;5032711;28;45443;-73
2022/08/31 10:19:52;;;;;;;;;41.75;36.50;;;;;23.81;82.75;101534.00;5034277;28;46602;-73
2022/08/31 10:22:35;;;;;;;;;14.67;12.33;;;;;23.88;82.83;101530.19;5052035;28;45381;-73
2022/08/31 10:25:22;;;;;;;;;16.00;16.00;;;;;23.98;82.03;101523.53;5053727;28;45405;-73
2022/08/31 10:27:59;;;;;;;;;14.00;11.33;;;;;24.00;81.59;101519.84;5054916;28;45539;-73
2022/08/31 10:30:37;;;;;;;;;11.00;11.00;;;;;24.07;82.42;101520.50;5059653;28;47582;-74
2022/08/31 10:33:19;;;;;;;;;10.67;9.33;;;;;24.21;82.09;101528.16;5036586;28;45407;-74
2022/08/31 10:35:53;;;;;;;;;8.67;7.33;;;;;24.27;80.26;101517.13;5018395;28;45513;-74
2022/08/31 10:38:39;;;;;;;;;10.00;7.67;;;;;24.39;80.86;101522.13;5051649;28;45558;-73
2022/08/31 10:41:04;;;;;;;;;30.33;30.00;;;;;24.48;80.49;101531.72;5051886;28;46760;-72
2022/08/31 10:43:44;;;;;;;;;24.00;21.67;;;;;24.58;80.30;101530.47;5052976;28;45516;-73
2022/08/31 10:46:10;;;;;;;;;21.67;21.67;;;;;24.63;79.64;101519.50;5035612;28;45539;-73
2022/08/31 10:48:39;;;;;;;;;9.33;9.33;;;;;24.73;80.23;101518.22;5055911;28;45574;-73
2022/08/31 10:51:12;;;;;;;;;9.67;9.67;;;;;24.78;78.64;101524.34;5056409;28;47518;-74
2022/08/31 10:53:57;;;;;;;;;10.00;9.00;;;;;24.80;78.58;101504.41;5056335;28;46005;-73
2022/08/31 10:57:11;;;;;;;;;9.33;7.00;;;;;24.91;79.10;101517.53;5057794;28;45448;-74
2022/08/31 10:59:38;;;;;;;;;7.67;7.67;;;;;24.96;79.15;101512.81;5021879;28;45607;-73
2022/08/31 11:02:37;;;;;;;;;11.33;9.00;;;;;25.11;78.64;101519.50;5056275;28;45647;-73
2022/08/31 11:05:44;;;;;;;;;8.00;8.00;;;;;25.20;76.79;101516.44;5058057;28;45381;-73
2022/08/31 11:08:19;;;;;;;;;7.67;7.67;;;;;25.28;77.04;101508.03;5044672;28;45332;-73
2022/08/31 11:10:50;;;;;;;;;9.00;9.00;;;;;25.33;76.69;101506.91;5038976;28;45401;-73
2022/08/31 11:13:46;;;;;;;;;10.33;8.67;;;;;25.39;77.02;101516.59;5056349;28;47469;-73
2022/08/31 11:16:31;;;;;;;;;9.00;9.00;;;;;25.49;76.31;101509.00;5033691;28;45520;-73
2022/08/31 11:19:38;;;;;;;;;8.00;8.00;;;;;25.54;76.75;101504.28;5054286;28;45537;-73
2022/08/31 11:22:27;;;;;;;;;9.00;9.00;;;;;25.65;75.08;101506.56;5056335;28;45450;-73
2022/08/31 11:25:23;;;;;;;;;9.00;8.00;;;;;25.75;75.39;101507.97;5056748;28;47377;-72
2022/08/31 11:28:12;;;;;;;;;8.67;8.33;;;;;25.82;75.11;101494.09;5052924;28;45841;-72
2022/08/31 11:30:44;;;;;;;;;9.00;8.00;;;;;25.89;73.51;101502.88;5057816;28;45381;-72
2022/08/31 11:33:18;;;;;;;;;8.00;8.00;;;;;25.95;73.86;101499.91;5053157;28;45512;-72
2022/08/31 11:35:48;;;;;;;;;8.00;8.00;;;;;26.00;73.62;101500.59;5037753;28;46281;-73
2022/08/31 11:38:53;;;;;;;;;9.00;9.00;;;;;26.07;71.64;101493.97;5056887;28;45437;-72
2022/08/31 11:41:33;;;;;;;;;9.67;8.67;;;;;26.18;72.01;101500.72;5055675;28;45388;-72
2022/08/31 11:44:02;;;;;;;;;12.00;10.67;;;;;26.24;71.68;101495.06;5058272;28;45581;-72
2022/08/31 11:46:27;;;;;;;;;8.00;8.00;;;;;26.30;71.32;101492.06;5058414;28;47571;-73